Terminal Aerodrome Forecast
Issued by NWS Wilmington, OH

Current Version | Previous Version | Text Only | Print | Product List | Glossary Off
Versions: 1 2 3 4 5 6 7 8 9 10 11 12 13 14 15 16 17 18 19 20 21 22 23 24

000
FTUS41 KILN 282300
TAFDAY
TAF
KDAY 282337Z 0100/0124 12007KT P6SM OVC070
     FM010300 12005KT 4SM -SN BKN025 OVC040
     FM010900 14005KT 1SM -SN OVC005
      TEMPO 0110/0114 1/2SM SN OVC001
     FM011600 24006KT 5SM -SN OVC015
     FM011800 14005KT 1SM -SN OVC006=

USA.gov is the U.S. government's official web portal to all federal, state and local government web resources and services.